sensor_id;sensor_type;location;lat;lon;timestamp;temperature;humidity
12481;DHT22;6305;48.398;11.762;2023-04-01T00:01:07;8.30;99.90
12481;DHT22;6305;48.398;11.762;2023-04-01T00:03:34;8.20;99.90
12481;DHT22;6305;48.398;11.762;2023-04-01T00:06:03;8.20;99.90
12481;DHT22;6305;48.398;11.762;2023-04-01T00:08:30;8.20;99.90
12481;DHT22;6305;48.398;11.762;2023-04-01T00:10:57;8.10;99.90
12481;DHT22;6305;48.398;11.762;2023-04-01T00:13:26;8.00;99.90
12481;DHT22;6305;48.398;11.762;2023-04-01T00:15:53;7.90;99.90
12481;DHT22;6305;48.398;11.762;2023-04-01T00:18:21;7.90;99.90
12481;DHT22;6305;48.398;11.762;2023-04-01T00:20:49;7.80;99.90
12481;DHT22;6305;48.398;11.762;2023-04-01T00:23:18;7.70;99.90
12481;DHT22;6305;48.398;11.762;2023-04-01T00:25:45;7.60;99.90
12481;DHT22;6305;48.398;11.762;2023-04-01T00:28:13;7.60;99.90
12481;DHT22;6305;48.398;11.762;2023-04-01T00:30:42;7.50;99.90
12481;DHT22;6305;48.398;11.762;2023-04-01T00:33:09;7.50;99.90
12481;DHT22;6305;48.398;11.762;2023-04-01T00:35:36;7.40;99.90
12481;DHT22;6305;48.398;11.762;2023-04-01T00:38:04;7.40;99.90
12481;DHT22;6305;48.398;11.762;2023-04-01T00:40:34;7.30;99.90
12481;DHT22;6305;48.398;11.762;2023-04-01T00:43:01;7.30;99.90
12481;DHT22;6305;48.398;11.762;2023-04-01T00:45:37;7.30;99.90
12481;DHT22;6305;48.398;11.762;2023-04-01T00:48:09;7.40;99.90
12481;DHT22;6305;48.398;11.762;2023-04-01T00:50:39;7.50;99.90
12481;DHT22;6305;48.398;11.762;2023-04-01T00:53:08;7.60;99.90
12481;DHT22;6305;48.398;11.762;2023-04-01T00:55:39;7.60;99.90
12481;DHT22;6305;48.398;11.762;2023-04-01T00:58:13;7.60;99.90
12481;DHT22;6305;48.398;11.762;2023-04-01T01:00:42;7.60;99.90
12481;DHT22;6305;48.398;11.762;2023-04-01T01:03:10;7.70;99.90
12481;DHT22;6305;48.398;11.762;2023-04-01T01:05:50;7.60;99.90
12481;DHT22;6305;48.398;11.762;2023-04-01T01:08:26;7.60;99.90
12481;DHT22;6305;48.398;11.762;2023-04-01T01:10:56;7.60;99.90
12481;DHT22;6305;48.398;11.762;2023-04-01T01:13:26;7.60;99.90
12481;DHT22;6305;48.398;11.762;2023-04-01T01:15:58;7.60;99.90
12481;DHT22;6305;48.398;11.762;2023-04-01T01:18:34;7.60;99.90
12481;DHT22;6305;48.398;11.762;2023-04-01T01:27:11;7.60;99.90
12481;DHT22;6305;48.398;11.762;2023-04-01T01:30:00;7.60;99.90
12481;DHT22;6305;48.398;11.762;2023-04-01T01:32:46;7.60;99.90
12481;DHT22;6305;48.398;11.762;2023-04-01T01:35:22;7.60;99.90
12481;DHT22;6305;48.398;11.762;2023-04-01T01:37:54;7.50;99.90
12481;DHT22;6305;48.398;11.762;2023-04-01T01:40:22;7.50;99.90
12481;DHT22;6305;48.398;11.762;2023-04-01T01:42:54;7.50;99.90
12481;DHT22;6305;48.398;11.762;2023-04-01T01:45:23;7.40;99.90
12481;DHT22;6305;48.398;11.762;2023-04-01T01:47:52;7.40;99.90
12481;DHT22;6305;48.398;11.762;2023-04-01T01:50:22;7.40;99.90
12481;DHT22;6305;48.398;11.762;2023-04-01T01:52:50;7.40;99.90
12481;DHT22;6305;48.398;11.762;2023-04-01T01:55:27;7.30;99.90
12481;DHT22;6305;48.398;11.762;2023-04-01T01:57:57;7.30;99.90
12481;DHT22;6305;48.398;11.762;2023-04-01T02:00:26;7.30;99.90
12481;DHT22;6305;48.398;11.762;2023-04-01T02:02:54;7.30;99.90
12481;DHT22;6305;48.398;11.762;2023-04-01T02:05:25;7.30;99.90
12481;DHT22;6305;48.398;11.762;2023-04-01T02:08:02;7.40;99.90
12481;DHT22;6305;48.398;11.762;2023-04-01T02:10:35;7.60;99.90
12481;DHT22;6305;48.398;11.762;2023-04-01T02:13:07;7.50;99.90
12481;DHT22;6305;48.398;11.762;2023-04-01T02:15:42;7.50;99.90
12481;DHT22;6305;48.398;11.762;2023-04-01T02:18:10;7.50;99.90
12481;DHT22;6305;48.398;11.762;2023-04-01T02:20:40;7.50;99.90
12481;DHT22;6305;48.398;11.762;2023-04-01T02:23:12;7.30;99.90
12481;DHT22;6305;48.398;11.762;2023-04-01T02:25:40;7.30;99.90
12481;DHT22;6305;48.398;11.762;2023-04-01T02:28:09;7.20;99.90
12481;DHT22;6305;48.398;11.762;2023-04-01T02:30:40;7.20;99.90
12481;DHT22;6305;48.398;11.762;2023-04-01T02:33:08;7.20;99.90
12481;DHT22;6305;48.398;11.762;2023-04-01T02:35:36;7.20;99.90
12481;DHT22;6305;48.398;11.762;2023-04-01T02:38:05;7.10;99.90
12481;DHT22;6305;48.398;11.762;2023-04-01T02:40:45;7.20;99.90
12481;DHT22;6305;48.398;11.762;2023-04-01T02:43:12;7.20;99.90
12481;DHT22;6305;48.398;11.762;2023-04-01T02:45:39;7.10;99.90
12481;DHT22;6305;48.398;11.762;2023-04-01T02:48:07;7.20;99.90
12481;DHT22;6305;48.398;11.762;2023-04-01T02:50:36;7.10;99.90
12481;DHT22;6305;48.398;11.762;2023-04-01T02:53:04;7.10;99.90
12481;DHT22;6305;48.398;11.762;2023-04-01T02:55:32;7.20;99.90
12481;DHT22;6305;48.398;11.762;2023-04-01T02:58:00;7.20;99.90
12481;DHT22;6305;48.398;11.762;2023-04-01T03:00:28;7.30;99.90
12481;DHT22;6305;48.398;11.762;2023-04-01T03:02:55;7.30;99.90
12481;DHT22;6305;48.398;11.762;2023-04-01T03:05:22;7.30;99.90
12481;DHT22;6305;48.398;11.762;2023-04-01T03:07:49;7.30;99.90
12481;DHT22;6305;48.398;11.762;2023-04-01T03:10:17;7.20;99.90
12481;DHT22;6305;48.398;11.762;2023-04-01T03:12:45;7.10;99.90
12481;DHT22;6305;48.398;11.762;2023-04-01T03:15:13;7.10;99.90
12481;DHT22;6305;48.398;11.762;2023-04-01T03:17:40;7.00;99.90
12481;DHT22;6305;48.398;11.762;2023-04-01T03:20:10;6.90;99.90
12481;DHT22;6305;48.398;11.762;2023-04-01T03:22:38;6.90;99.90
12481;DHT22;6305;48.398;11.762;2023-04-01T03:25:06;6.90;99.90
12481;DHT22;6305;48.398;11.762;2023-04-01T03:27:34;6.80;99.90
12481;DHT22;6305;48.398;11.762;2023-04-01T03:30:02;6.80;99.90
12481;DHT22;6305;48.398;11.762;2023-04-01T03:32:30;7.00;99.90
12481;DHT22;6305;48.398;11.762;2023-04-01T03:34:58;7.00;99.90
12481;DHT22;6305;48.398;11.762;2023-04-01T03:37:24;7.10;99.90
12481;DHT22;6305;48.398;11.762;2023-04-01T03:39:51;7.00;99.90
12481;DHT22;6305;48.398;11.762;2023-04-01T03:42:19;7.00;99.90
12481;DHT22;6305;48.398;11.762;2023-04-01T03:44:47;6.90;99.90
12481;DHT22;6305;48.398;11.762;2023-04-01T03:47:14;6.90;99.90
12481;DHT22;6305;48.398;11.762;2023-04-01T03:49:41;7.00;99.90
12481;DHT22;6305;48.398;11.762;2023-04-01T03:52:10;7.00;99.90
12481;DHT22;6305;48.398;11.762;2023-04-01T03:54:37;6.90;99.90
12481;DHT22;6305;48.398;11.762;2023-04-01T03:57:05;6.90;99.90
12481;DHT22;6305;48.398;11.762;2023-04-01T03:59:32;6.80;99.90
12481;DHT22;6305;48.398;11.762;2023-04-01T04:02:01;6.80;99.90
12481;DHT22;6305;48.398;11.762;2023-04-01T04:04:31;6.70;99.90
12481;DHT22;6305;48.398;11.762;2023-04-01T04:07:03;6.60;99.90
12481;DHT22;6305;48.398;11.762;2023-04-01T04:09:50;6.60;99.90
12481;DHT22;6305;48.398;11.762;2023-04-01T04:12:25;6.80;99.90
12481;DHT22;6305;48.398;11.762;2023-04-01T04:14:53;6.90;99.90
12481;DHT22;6305;48.398;11.762;2023-04-01T04:17:22;7.00;99.90
12481;DHT22;6305;48.398;11.762;2023-04-01T04:19:50;7.10;99.90
12481;DHT22;6305;48.398;11.762;2023-04-01T04:22:17;7.10;99.90
12481;DHT22;6305;48.398;11.762;2023-04-01T04:24:44;7.20;99.90
12481;DHT22;6305;48.398;11.762;2023-04-01T04:27:12;7.10;99.90
12481;DHT22;6305;48.398;11.762;2023-04-01T04:30:03;6.90;99.90
12481;DHT22;6305;48.398;11.762;2023-04-01T04:32:33;6.80;99.90
12481;DHT22;6305;48.398;11.762;2023-04-01T04:35:00;6.70;99.90
12481;DHT22;6305;48.398;11.762;2023-04-01T04:37:27;6.60;99.90
12481;DHT22;6305;48.398;11.762;2023-04-01T04:39:55;6.50;99.90
12481;DHT22;6305;48.398;11.762;2023-04-01T04:42:22;6.40;99.90
12481;DHT22;6305;48.398;11.762;2023-04-01T04:44:53;6.40;99.90
12481;DHT22;6305;48.398;11.762;2023-04-01T04:47:21;6.30;99.90
12481;DHT22;6305;48.398;11.762;2023-04-01T04:49:52;6.40;99.90
12481;DHT22;6305;48.398;11.762;2023-04-01T04:52:19;6.50;99.90
12481;DHT22;6305;48.398;11.762;2023-04-01T04:54:46;6.70;99.90
12481;DHT22;6305;48.398;11.762;2023-04-01T04:57:14;6.80;99.90
12481;DHT22;6305;48.398;11.762;2023-04-01T04:59:47;6.80;99.90
12481;DHT22;6305;48.398;11.762;2023-04-01T05:02:38;6.90;99.90
12481;DHT22;6305;48.398;11.762;2023-04-01T05:05:08;6.90;99.90
12481;DHT22;6305;48.398;11.762;2023-04-01T05:07:36;6.90;99.90
12481;DHT22;6305;48.398;11.762;2023-04-01T05:10:05;7.00;99.90
12481;DHT22;6305;48.398;11.762;2023-04-01T05:12:36;7.10;99.90
12481;DHT22;6305;48.398;11.762;2023-04-01T05:15:06;7.20;99.90
12481;DHT22;6305;48.398;11.762;2023-04-01T05:17:39;7.20;99.90
12481;DHT22;6305;48.398;11.762;2023-04-01T05:20:14;7.30;99.90
12481;DHT22;6305;48.398;11.762;2023-04-01T05:22:44;7.40;99.90
12481;DHT22;6305;48.398;11.762;2023-04-01T05:25:11;7.50;99.90
12481;DHT22;6305;48.398;11.762;2023-04-01T05:27:38;7.50;99.90
12481;DHT22;6305;48.398;11.762;2023-04-01T05:30:06;7.50;99.90
12481;DHT22;6305;48.398;11.762;2023-04-01T05:33:02;7.60;99.90
12481;DHT22;6305;48.398;11.762;2023-04-01T05:35:34;7.70;99.90
12481;DHT22;6305;48.398;11.762;2023-04-01T05:38:03;7.80;99.90
12481;DHT22;6305;48.398;11.762;2023-04-01T05:40:34;7.90;99.90
12481;DHT22;6305;48.398;11.762;2023-04-01T05:43:01;8.00;99.90
12481;DHT22;6305;48.398;11.762;2023-04-01T05:45:32;8.20;99.90
12481;DHT22;6305;48.398;11.762;2023-04-01T05:48:11;8.20;99.90
12481;DHT22;6305;48.398;11.762;2023-04-01T05:50:41;8.30;99.90
12481;DHT22;6305;48.398;11.762;2023-04-01T05:53:18;8.50;99.90
12481;DHT22;6305;48.398;11.762;2023-04-01T05:55:45;8.60;99.90
12481;DHT22;6305;48.398;11.762;2023-04-01T05:58:27;8.80;99.90
12481;DHT22;6305;48.398;11.762;2023-04-01T06:01:05;8.80;99.90
12481;DHT22;6305;48.398;11.762;2023-04-01T06:03:33;8.90;99.90
12481;DHT22;6305;48.398;11.762;2023-04-01T06:06:02;9.10;99.90
12481;DHT22;6305;48.398;11.762;2023-04-01T06:08:31;9.20;99.90
12481;DHT22;6305;48.398;11.762;2023-04-01T06:11:07;9.70;99.90
12481;DHT22;6305;48.398;11.762;2023-04-01T06:14:01;10.10;99.90
12481;DHT22;6305;48.398;11.762;2023-04-01T06:16:39;10.20;99.90
12481;DHT22;6305;48.398;11.762;2023-04-01T06:19:22;10.20;99.90
12481;DHT22;6305;48.398;11.762;2023-04-01T06:22:20;10.10;99.90
12481;DHT22;6305;48.398;11.762;2023-04-01T06:25:10;10.20;99.90
12481;DHT22;6305;48.398;11.762;2023-04-01T06:27:53;10.20;99.90
12481;DHT22;6305;48.398;11.762;2023-04-01T06:30:35;10.20;99.90
12481;DHT22;6305;48.398;11.762;2023-04-01T06:33:30;10.10;99.90
12481;DHT22;6305;48.398;11.762;2023-04-01T06:36:21;10.00;99.90
12481;DHT22;6305;48.398;11.762;2023-04-01T06:39:04;10.00;99.90
12481;DHT22;6305;48.398;11.762;2023-04-01T06:41:55;10.00;99.90
12481;DHT22;6305;48.398;11.762;2023-04-01T06:44:37;10.00;99.90
12481;DHT22;6305;48.398;11.762;2023-04-01T06:47:36;10.20;99.90
12481;DHT22;6305;48.398;11.762;2023-04-01T06:50:30;10.70;99.90
12481;DHT22;6305;48.398;11.762;2023-04-01T06:53:23;10.80;99.90
12481;DHT22;6305;48.398;11.762;2023-04-01T06:56:14;11.40;99.90
12481;DHT22;6305;48.398;11.762;2023-04-01T06:59:09;12.50;99.90
12481;DHT22;6305;48.398;11.762;2023-04-01T07:01:39;12.80;96.30
12481;DHT22;6305;48.398;11.762;2023-04-01T07:04:13;12.30;96.50
12481;DHT22;6305;48.398;11.762;2023-04-01T07:06:45;12.20;97.60
12481;DHT22;6305;48.398;11.762;2023-04-01T07:09:16;12.60;96.80
12481;DHT22;6305;48.398;11.762;2023-04-01T07:12:10;12.70;95.70
12481;DHT22;6305;48.398;11.762;2023-04-01T07:15:09;12.60;93.60
12481;DHT22;6305;48.398;11.762;2023-04-01T07:17:39;12.20;93.60
12481;DHT22;6305;48.398;11.762;2023-04-01T07:20:15;12.80;93.40
12481;DHT22;6305;48.398;11.762;2023-04-01T07:22:46;13.90;90.40
12481;DHT22;6305;48.398;11.762;2023-04-01T07:25:41;14.70;83.30
12481;DHT22;6305;48.398;11.762;2023-04-01T07:28:31;14.80;76.30
12481;DHT22;6305;48.398;11.762;2023-04-01T07:31:19;15.10;76.30
12481;DHT22;6305;48.398;11.762;2023-04-01T07:33:54;15.00;72.60
12481;DHT22;6305;48.398;11.762;2023-04-01T07:36:32;14.40;73.40
12481;DHT22;6305;48.398;11.762;2023-04-01T07:39:08;13.50;76.40
12481;DHT22;6305;48.398;11.762;2023-04-01T07:42:23;13.10;82.80
12481;DHT22;6305;48.398;11.762;2023-04-01T07:45:02;16.50;75.10
12481;DHT22;6305;48.398;11.762;2023-04-01T07:47:40;17.50;62.30
12481;DHT22;6305;48.398;11.762;2023-04-01T07:50:18;15.70;61.40
12481;DHT22;6305;48.398;11.762;2023-04-01T07:52:58;16.00;62.20
12481;DHT22;6305;48.398;11.762;2023-04-01T07:55:31;14.60;63.80
12481;DHT22;6305;48.398;11.762;2023-04-01T07:58:06;13.80;68.50
12481;DHT22;6305;48.398;11.762;2023-04-01T08:00:46;13.50;71.20
12481;DHT22;6305;48.398;11.762;2023-04-01T08:03:31;13.10;72.60
12481;DHT22;6305;48.398;11.762;2023-04-01T08:06:08;12.50;77.30
12481;DHT22;6305;48.398;11.762;2023-04-01T08:08:46;12.10;81.20
12481;DHT22;6305;48.398;11.762;2023-04-01T08:11:45;11.90;86.40
12481;DHT22;6305;48.398;11.762;2023-04-01T08:14:52;12.60;86.30
12481;DHT22;6305;48.398;11.762;2023-04-01T08:18:05;12.70;83.80
12481;DHT22;6305;48.398;11.762;2023-04-01T08:20:40;12.30;87.00
12481;DHT22;6305;48.398;11.762;2023-04-01T08:23:13;12.10;87.60
12481;DHT22;6305;48.398;11.762;2023-04-01T08:25:47;11.90;89.30
12481;DHT22;6305;48.398;11.762;2023-04-01T08:28:19;11.80;91.00
12481;DHT22;6305;48.398;11.762;2023-04-01T08:30:52;12.00;90.10
12481;DHT22;6305;48.398;11.762;2023-04-01T08:33:25;12.20;88.60
12481;DHT22;6305;48.398;11.762;2023-04-01T08:36:03;12.20;85.20
12481;DHT22;6305;48.398;11.762;2023-04-01T08:38:36;12.10;87.70
12481;DHT22;6305;48.398;11.762;2023-04-01T08:41:29;12.30;87.90
12481;DHT22;6305;48.398;11.762;2023-04-01T08:44:40;13.60;83.10
12481;DHT22;6305;48.398;11.762;2023-04-01T08:50:26;13.40;76.00
12481;DHT22;6305;48.398;11.762;2023-04-01T08:53:08;13.10;77.20
12481;DHT22;6305;48.398;11.762;2023-04-01T08:55:44;12.90;76.50
12481;DHT22;6305;48.398;11.762;2023-04-01T08:58:44;12.80;78.10
12481;DHT22;6305;48.398;11.762;2023-04-01T09:01:42;12.50;80.10
12481;DHT22;6305;48.398;11.762;2023-04-01T09:04:41;12.30;81.00
12481;DHT22;6305;48.398;11.762;2023-04-01T09:07:27;12.10;82.60
12481;DHT22;6305;48.398;11.762;2023-04-01T09:10:22;12.10;85.10
12481;DHT22;6305;48.398;11.762;2023-04-01T09:13:12;12.30;84.70
12481;DHT22;6305;48.398;11.762;2023-04-01T09:15:54;13.20;79.10
12481;DHT22;6305;48.398;11.762;2023-04-01T09:19:11;14.60;75.10
12481;DHT22;6305;48.398;11.762;2023-04-01T09:25:06;17.40;61.10
12481;DHT22;6305;48.398;11.762;2023-04-01T09:27:44;17.00;57.80
12481;DHT22;6305;48.398;11.762;2023-04-01T09:36:43;14.20;65.40
12481;DHT22;6305;48.398;11.762;2023-04-01T09:39:36;13.90;68.70
12481;DHT22;6305;48.398;11.762;2023-04-01T09:45:41;14.00;70.60
12481;DHT22;6305;48.398;11.762;2023-04-01T09:48:28;13.90;70.00
12481;DHT22;6305;48.398;11.762;2023-04-01T09:51:08;13.80;68.10
12481;DHT22;6305;48.398;11.762;2023-04-01T09:54:03;13.60;68.80
12481;DHT22;6305;48.398;11.762;2023-04-01T09:57:13;13.50;70.60
12481;DHT22;6305;48.398;11.762;2023-04-01T10:00:25;13.30;75.10
12481;DHT22;6305;48.398;11.762;2023-04-01T10:03:34;13.80;73.10
12481;DHT22;6305;48.398;11.762;2023-04-01T10:06:33;14.00;71.00
12481;DHT22;6305;48.398;11.762;2023-04-01T10:09:50;13.90;70.30
12481;DHT22;6305;48.398;11.762;2023-04-01T10:16:03;14.00;72.70
12481;DHT22;6305;48.398;11.762;2023-04-01T10:19:03;14.50;71.00
12481;DHT22;6305;48.398;11.762;2023-04-01T10:22:05;15.10;69.20
12481;DHT22;6305;48.398;11.762;2023-04-01T10:25:10;15.50;66.10
12481;DHT22;6305;48.398;11.762;2023-04-01T10:28:02;16.00;63.30
12481;DHT22;6305;48.398;11.762;2023-04-01T10:31:25;15.70;62.80
12481;DHT22;6305;48.398;11.762;2023-04-01T10:36:57;14.20;67.10
12481;DHT22;6305;48.398;11.762;2023-04-01T10:43:27;13.10;73.20
12481;DHT22;6305;48.398;11.762;2023-04-01T10:46:37;12.90;77.20
12481;DHT22;6305;48.398;11.762;2023-04-01T10:52:29;12.30;86.60
12481;DHT22;6305;48.398;11.762;2023-04-01T10:55:36;12.20;90.40
12481;DHT22;6305;48.398;11.762;2023-04-01T10:58:56;11.90;92.20
12481;DHT22;6305;48.398;11.762;2023-04-01T11:05:36;12.00;94.80
12481;DHT22;6305;48.398;11.762;2023-04-01T11:08:54;11.80;95.80
12481;DHT22;6305;48.398;11.762;2023-04-01T11:15:22;11.00;99.90
12481;DHT22;6305;48.398;11.762;2023-04-01T11:18:21;10.80;99.90
12481;DHT22;6305;48.398;11.762;2023-04-01T11:21:27;10.90;99.90
12481;DHT22;6305;48.398;11.762;2023-04-01T11:24:20;11.00;99.90
12481;DHT22;6305;48.398;11.762;2023-04-01T11:27:23;10.80;99.90
12481;DHT22;6305;48.398;11.762;2023-04-01T11:30:24;10.80;99.90
12481;DHT22;6305;48.398;11.762;2023-04-01T11:33:02;11.10;99.90
12481;DHT22;6305;48.398;11.762;2023-04-01T11:38:30;11.40;99.90
12481;DHT22;6305;48.398;11.762;2023-04-01T11:41:27;11.30;99.90
12481;DHT22;6305;48.398;11.762;2023-04-01T11:44:17;11.00;99.90
12481;DHT22;6305;48.398;11.762;2023-04-01T11:47:24;10.90;99.90
12481;DHT22;6305;48.398;11.762;2023-04-01T11:50:10;10.60;99.90
12481;DHT22;6305;48.398;11.762;2023-04-01T11:52:59;10.50;99.90
12481;DHT22;6305;48.398;11.762;2023-04-01T11:55:38;10.40;99.90
12481;DHT22;6305;48.398;11.762;2023-04-01T12:01:17;10.40;99.90
12481;DHT22;6305;48.398;11.762;2023-04-01T12:04:15;10.10;99.90
12481;DHT22;6305;48.398;11.762;2023-04-01T12:06:49;9.70;99.90
12481;DHT22;6305;48.398;11.762;2023-04-01T12:09:28;9.40;99.90
12481;DHT22;6305;48.398;11.762;2023-04-01T12:12:09;9.00;99.90
12481;DHT22;6305;48.398;11.762;2023-04-01T12:14:42;8.80;99.90
12481;DHT22;6305;48.398;11.762;2023-04-01T12:17:26;8.80;99.90
12481;DHT22;6305;48.398;11.762;2023-04-01T12:19:59;8.80;99.90
12481;DHT22;6305;48.398;11.762;2023-04-01T12:22:38;8.80;99.90
12481;DHT22;6305;48.398;11.762;2023-04-01T12:25:22;8.80;99.90
12481;DHT22;6305;48.398;11.762;2023-04-01T12:28:02;8.80;99.90
12481;DHT22;6305;48.398;11.762;2023-04-01T12:30:58;8.80;99.90
12481;DHT22;6305;48.398;11.762;2023-04-01T12:33:47;8.80;99.90
12481;DHT22;6305;48.398;11.762;2023-04-01T12:36:40;8.80;99.90
12481;DHT22;6305;48.398;11.762;2023-04-01T12:39:33;8.80;99.90
12481;DHT22;6305;48.398;11.762;2023-04-01T12:42:11;8.70;99.90
12481;DHT22;6305;48.398;11.762;2023-04-01T12:44:50;8.70;99.90
12481;DHT22;6305;48.398;11.762;2023-04-01T12:47:30;8.60;99.90
12481;DHT22;6305;48.398;11.762;2023-04-01T12:50:19;8.50;99.90
12481;DHT22;6305;48.398;11.762;2023-04-01T12:52:59;8.40;99.90
12481;DHT22;6305;48.398;11.762;2023-04-01T12:55:37;8.40;99.90
12481;DHT22;6305;48.398;11.762;2023-04-01T13:01:30;8.20;99.90
12481;DHT22;6305;48.398;11.762;2023-04-01T13:04:24;8.10;99.90
12481;DHT22;6305;48.398;11.762;2023-04-01T13:07:17;8.10;99.90
12481;DHT22;6305;48.398;11.762;2023-04-01T13:09:55;8.10;99.90
12481;DHT22;6305;48.398;11.762;2023-04-01T13:12:40;8.10;99.90
12481;DHT22;6305;48.398;11.762;2023-04-01T13:15:19;8.00;99.90
12481;DHT22;6305;48.398;11.762;2023-04-01T13:17:52;7.90;99.90
12481;DHT22;6305;48.398;11.762;2023-04-01T13:20:27;7.90;99.90
12481;DHT22;6305;48.398;11.762;2023-04-01T13:23:03;7.90;99.90
12481;DHT22;6305;48.398;11.762;2023-04-01T13:25:39;7.90;99.90
12481;DHT22;6305;48.398;11.762;2023-04-01T13:28:15;7.90;99.90
12481;DHT22;6305;48.398;11.762;2023-04-01T13:30:47;7.90;99.90
12481;DHT22;6305;48.398;11.762;2023-04-01T13:33:21;7.80;99.90
12481;DHT22;6305;48.398;11.762;2023-04-01T13:36:01;7.90;99.90
12481;DHT22;6305;48.398;11.762;2023-04-01T13:41:40;8.10;99.90
12481;DHT22;6305;48.398;11.762;2023-04-01T13:44:17;8.10;99.90
12481;DHT22;6305;48.398;11.762;2023-04-01T13:50:16;8.30;99.90
12481;DHT22;6305;48.398;11.762;2023-04-01T13:53:01;8.30;99.90
12481;DHT22;6305;48.398;11.762;2023-04-01T13:55:44;8.20;99.90
12481;DHT22;6305;48.398;11.762;2023-04-01T13:58:38;8.30;99.90
12481;DHT22;6305;48.398;11.762;2023-04-01T14:01:13;8.30;99.90
12481;DHT22;6305;48.398;11.762;2023-04-01T14:07:11;8.60;99.90
12481;DHT22;6305;48.398;11.762;2023-04-01T14:09:51;9.00;99.90
12481;DHT22;6305;48.398;11.762;2023-04-01T14:12:30;9.20;99.90
12481;DHT22;6305;48.398;11.762;2023-04-01T14:15:14;9.20;99.90
12481;DHT22;6305;48.398;11.762;2023-04-01T14:17:58;9.20;99.90
12481;DHT22;6305;48.398;11.762;2023-04-01T14:20:33;9.30;99.90
12481;DHT22;6305;48.398;11.762;2023-04-01T14:23:23;9.30;99.90
12481;DHT22;6305;48.398;11.762;2023-04-01T14:29:16;9.10;99.90
12481;DHT22;6305;48.398;11.762;2023-04-01T14:31:59;9.00;99.90
12481;DHT22;6305;48.398;11.762;2023-04-01T14:34:47;9.00;99.90
12481;DHT22;6305;48.398;11.762;2023-04-01T14:37:39;9.00;99.90
12481;DHT22;6305;48.398;11.762;2023-04-01T14:40:28;9.00;99.90
12481;DHT22;6305;48.398;11.762;2023-04-01T14:43:28;8.90;99.90
12481;DHT22;6305;48.398;11.762;2023-04-01T14:46:17;8.90;99.90
12481;DHT22;6305;48.398;11.762;2023-04-01T14:48:53;8.80;99.90
12481;DHT22;6305;48.398;11.762;2023-04-01T14:51:28;8.80;99.90
12481;DHT22;6305;48.398;11.762;2023-04-01T14:54:03;8.80;99.90
12481;DHT22;6305;48.398;11.762;2023-04-01T14:56:39;8.80;99.90
12481;DHT22;6305;48.398;11.762;2023-04-01T14:59:10;8.70;99.90
12481;DHT22;6305;48.398;11.762;2023-04-01T15:01:51;8.70;99.90
12481;DHT22;6305;48.398;11.762;2023-04-01T15:04:37;8.60;99.90
12481;DHT22;6305;48.398;11.762;2023-04-01T15:07:26;8.50;99.90
12481;DHT22;6305;48.398;11.762;2023-04-01T15:10:02;8.40;99.90
12481;DHT22;6305;48.398;11.762;2023-04-01T15:12:38;8.30;99.90
12481;DHT22;6305;48.398;11.762;2023-04-01T15:15:16;8.20;99.90
12481;DHT22;6305;48.398;11.762;2023-04-01T15:18:02;8.10;99.90
12481;DHT22;6305;48.398;11.762;2023-04-01T15:23:42;8.10;99.90
12481;DHT22;6305;48.398;11.762;2023-04-01T15:26:37;8.20;99.90
12481;DHT22;6305;48.398;11.762;2023-04-01T15:29:31;8.20;99.90
12481;DHT22;6305;48.398;11.762;2023-04-01T15:32:03;8.40;99.90
12481;DHT22;6305;48.398;11.762;2023-04-01T15:34:37;8.50;99.90
12481;DHT22;6305;48.398;11.762;2023-04-01T15:37:14;8.60;99.90
12481;DHT22;6305;48.398;11.762;2023-04-01T15:39:54;8.80;99.90
12481;DHT22;6305;48.398;11.762;2023-04-01T15:42:34;8.90;99.90
12481;DHT22;6305;48.398;11.762;2023-04-01T15:45:16;8.80;99.90
12481;DHT22;6305;48.398;11.762;2023-04-01T15:47:58;8.80;99.90
12481;DHT22;6305;48.398;11.762;2023-04-01T15:50:58;8.70;99.90
12481;DHT22;6305;48.398;11.762;2023-04-01T15:53:41;8.70;99.90
12481;DHT22;6305;48.398;11.762;2023-04-01T15:56:26;8.70;99.90
12481;DHT22;6305;48.398;11.762;2023-04-01T15:59:04;8.70;99.90
12481;DHT22;6305;48.398;11.762;2023-04-01T16:01:50;8.70;99.90
12481;DHT22;6305;48.398;11.762;2023-04-01T16:04:44;8.60;99.90
12481;DHT22;6305;48.398;11.762;2023-04-01T16:07:25;8.50;99.90
12481;DHT22;6305;48.398;11.762;2023-04-01T16:10:19;8.50;99.90
12481;DHT22;6305;48.398;11.762;2023-04-01T16:13:03;8.30;99.90
12481;DHT22;6305;48.398;11.762;2023-04-01T16:15:47;8.20;99.90
12481;DHT22;6305;48.398;11.762;2023-04-01T16:18:40;8.10;99.90
12481;DHT22;6305;48.398;11.762;2023-04-01T16:21:21;8.10;99.90
12481;DHT22;6305;48.398;11.762;2023-04-01T16:23:56;8.00;99.90
12481;DHT22;6305;48.398;11.762;2023-04-01T16:26:30;7.90;99.90
12481;DHT22;6305;48.398;11.762;2023-04-01T16:29:10;7.90;99.90
12481;DHT22;6305;48.398;11.762;2023-04-01T16:31:45;7.90;99.90
12481;DHT22;6305;48.398;11.762;2023-04-01T16:34:17;7.90;99.90
12481;DHT22;6305;48.398;11.762;2023-04-01T16:36:58;7.80;99.90
12481;DHT22;6305;48.398;11.762;2023-04-01T16:39:41;7.80;99.90
12481;DHT22;6305;48.398;11.762;2023-04-01T16:42:24;7.80;99.90
12481;DHT22;6305;48.398;11.762;2023-04-01T16:45:08;7.70;99.90
12481;DHT22;6305;48.398;11.762;2023-04-01T16:47:49;7.70;99.90
12481;DHT22;6305;48.398;11.762;2023-04-01T16:50:39;7.70;99.90
12481;DHT22;6305;48.398;11.762;2023-04-01T16:53:30;7.70;99.90
12481;DHT22;6305;48.398;11.762;2023-04-01T16:56:10;7.70;99.90
12481;DHT22;6305;48.398;11.762;2023-04-01T16:59:02;7.70;99.90
12481;DHT22;6305;48.398;11.762;2023-04-01T17:04:43;7.70;99.90
12481;DHT22;6305;48.398;11.762;2023-04-01T17:07:19;7.70;99.90
12481;DHT22;6305;48.398;11.762;2023-04-01T17:10:00;7.60;99.90
12481;DHT22;6305;48.398;11.762;2023-04-01T17:12:35;7.60;99.90
12481;DHT22;6305;48.398;11.762;2023-04-01T17:15:16;7.70;99.90
12481;DHT22;6305;48.398;11.762;2023-04-01T17:17:55;7.60;99.90
12481;DHT22;6305;48.398;11.762;2023-04-01T17:20:40;7.60;99.90
12481;DHT22;6305;48.398;11.762;2023-04-01T17:23:23;7.70;99.90
12481;DHT22;6305;48.398;11.762;2023-04-01T17:26:20;7.80;99.90
12481;DHT22;6305;48.398;11.762;2023-04-01T17:28:57;7.80;99.90
12481;DHT22;6305;48.398;11.762;2023-04-01T17:34:38;8.00;99.90
12481;DHT22;6305;48.398;11.762;2023-04-01T17:37:22;8.10;99.90
12481;DHT22;6305;48.398;11.762;2023-04-01T17:40:12;8.20;99.90
12481;DHT22;6305;48.398;11.762;2023-04-01T17:42:47;8.20;99.90
12481;DHT22;6305;48.398;11.762;2023-04-01T17:45:21;8.20;99.90
12481;DHT22;6305;48.398;11.762;2023-04-01T17:47:59;8.20;99.90
12481;DHT22;6305;48.398;11.762;2023-04-01T17:50:44;8.20;99.90
12481;DHT22;6305;48.398;11.762;2023-04-01T17:53:31;8.10;99.90
12481;DHT22;6305;48.398;11.762;2023-04-01T17:56:08;8.10;99.90
12481;DHT22;6305;48.398;11.762;2023-04-01T17:58:44;8.10;99.90
12481;DHT22;6305;48.398;11.762;2023-04-01T18:01:38;8.10;99.90
12481;DHT22;6305;48.398;11.762;2023-04-01T18:04:37;8.10;99.90
12481;DHT22;6305;48.398;11.762;2023-04-01T18:07:26;8.10;99.90
12481;DHT22;6305;48.398;11.762;2023-04-01T18:13:05;8.10;99.90
12481;DHT22;6305;48.398;11.762;2023-04-01T18:15:40;8.10;99.90
12481;DHT22;6305;48.398;11.762;2023-04-01T18:18:26;8.10;99.90